Zim Luanda — 9HA2029 — position and weather

sailwx.info

Track history (hours):
 
Tides and Currents Weather Stations Pressure Air Temp Water Temp Dewpoint Dewpoint Depression Visibility Wind Speed Wind Dir Waves Ship Positions

Zim Luanda

Last reported at 2015-Aug-30 11:33 UTC. Time now 2015-Aug-30 12:00 UTC.
Position N 40°40' W 074°09'.

Length 260 m; draft 12.3 m.

Type: Ship (hazmat cat A). MMSI: 249830000.

Date/timePositionNaut miles runAvg speedWind from/ knotsBaromVisibWave heightAir tempDewpointWater temp
2015-Aug-30 11:33N 40°40' W 074°09'5 5.1
2015-Aug-30 10:33N 40°37' W 074°03'1414.2
2015-Aug-30 09:33N 40°28' W 073°49'1211.8
2015-Aug-30 08:33N 40°28' W 073°34'1616.1
2015-Aug-30 07:33N 40°30' W 073°13'2316.2
2015-Aug-30 06:06N 40°30' W 072°42'47411.1
2015-Aug-28 11:32N 44°38' W 063°34'0 0.0
2015-Aug-28 10:32N 44°38' W 063°34'2 1.8
2015-Aug-28 09:33N 44°36' W 063°32'8 8.5
2015-Aug-28 08:33N 44°29' W 063°28'1010.0
2015-Aug-28 07:34N 44°27' W 063°14'  
2015-Aug-23 00:34N 41°38' W 029°49'1211.9
2015-Aug-22 23:34N 41°36' W 029°34'1211.8
2015-Aug-22 22:34N 41°34' W 029°18'1212.0
2015-Aug-22 21:33N 41°32' W 029°02'1711.7
2015-Aug-22 20:04N 41°28' W 028°40'612.0
2015-Aug-22 19:33N 41°27' W 028°31'1311.8
2015-Aug-22 18:28N 41°25' W 028°15'1411.7
2015-Aug-22 17:16N 41°23' W 027°56'  
Track history (hours):
 
Tides and Currents Weather Stations Pressure Air Temp Water Temp Dewpoint Dewpoint Depression Visibility Wind Speed Wind Dir Waves Ship Positions

Zim Luanda

Last reported at 2015-Aug-30 11:33 UTC. Time now 2015-Aug-30 12:00 UTC.
Position N 40°40' W 074°09'.

Length 260 m; draft 12.3 m.

Type: Ship (hazmat cat A). MMSI: 249830000.

Date/timePositionNaut miles runAvg speedWind from/ knotsBaromVisibWave heightAir tempDewpointWater temp
2015-Aug-30 11:33N 40°40' W 074°09'5 5.1
2015-Aug-30 10:33N 40°37' W 074°03'1414.2
2015-Aug-30 09:33N 40°28' W 073°49'1211.8
2015-Aug-30 08:33N 40°28' W 073°34'1616.1
2015-Aug-30 07:33N 40°30' W 073°13'2316.2
2015-Aug-30 06:06N 40°30' W 072°42'47411.1
2015-Aug-28 11:32N 44°38' W 063°34'0 0.0
2015-Aug-28 10:32N 44°38' W 063°34'2 1.8
2015-Aug-28 09:33N 44°36' W 063°32'8 8.5
2015-Aug-28 08:33N 44°29' W 063°28'1010.0
2015-Aug-28 07:34N 44°27' W 063°14'  
2015-Aug-23 00:34N 41°38' W 029°49'1211.9
2015-Aug-22 23:34N 41°36' W 029°34'1211.8
2015-Aug-22 22:34N 41°34' W 029°18'1212.0
2015-Aug-22 21:33N 41°32' W 029°02'1711.7
2015-Aug-22 20:04N 41°28' W 028°40'612.0
2015-Aug-22 19:33N 41°27' W 028°31'1311.8
2015-Aug-22 18:28N 41°25' W 028°15'1411.7
2015-Aug-22 17:16N 41°23' W 027°56'  

Dump ship's entire track history